Emad Fathy

Olheiro-Chefe - Ismaily
3 Dez 2028
Domingo
Processo

Personalidade

Adaptabilidade (8) Ambição (10) Controvérsia (13) Lealdade (17) Pressão (2) Profissionalismo (13) Espírito Esportivo (12) Temperamento (3)

Perfil

Estilo de Treinamento Democrático
Licença Continental B
Determinação 11
Gestão de Pessoas 6
Motivação 11
Disciplina 4
Satisfação no Trabalho
100%
Fadiga
0%
Função Olheiro-Chefe
Salário 46.7K p/s
Contrato 14.03.2029

Desempenho

Comportamento Bom
Eficácia do Treinamento
40%
Desenvolvimento do Jogador
20%
Prevenção de Lesões
60%
Implementação Tática
55%

Eventos Recentes

Participou de uma reunião de recrutamento agora
Recomendou um alvo de transferência agora
Participou de uma reunião de recrutamento 7d atrás
Recomendou um alvo de transferência 7d atrás
Recomendou um alvo de transferência 7d atrás
Recomendou um alvo de transferência 7d atrás
Recomendou um alvo de transferência 14d atrás
Recomendou um alvo de transferência 14d atrás

Monitorando agora

116
Jogador Clube Status Habilidade Confiança Observado Última observação Último voto
Luis Felipe Police Union Relatório pronto 84 / 89 86% 1 07.08.2028 -
Mahmoud El Moghazi Ghazl El Mahalla Relatório pronto 93 / 97 86% 1 31.07.2028 -
Mohamed Atef Al Ahly Relatório pronto 92 / 101 86% 1 24.07.2028 -
Lucas Monzón Alvarado Ativo 109 / 115 40% 1 02.01.2028 -
Saeid Pouraliganji Rah Ahan Ativo 109 / 109 66% 1 01.01.2028 Aprovar
Mohamed Bendary ENPPI Ativo 90 / 97 83% 1 01.01.2028 -
Brian Farioli Estudiantes Ativo 122 / 115 40% 1 31.12.2027 -
David Da Costa Portland Timbers Ativo 140 / 143 40% 1 31.12.2027 -
Youssef Oubaba ENPPI Ativo 80 / 95 79% 1 09.08.2027 Aprovar
Gonçalo Franco Swansea City Ativo 123 / 129 40% 1 09.08.2027 -
Hector Kyprianou Watford Ativo 134 / 112 40% 1 09.08.2027 -
Ilias Bronkhorst Huddersfield Town Ativo 121 / 119 40% 1 09.08.2027 -
James Morris Leyton Orient Ativo 116 / 120 40% 1 21.07.2027 -
Connor Ogilvie Grimsby Town Ativo 106 / 105 40% 1 21.07.2027 -
Oston O'runov Persepolis Ativo 120 / 121 67% 1 01.06.2027 Aprovar
Marcus McGuane Huddersfield Town Ativo 120 / 119 40% 1 31.05.2027 -
Josh Flint Gillingham Ativo 94 / 92 40% 1 31.05.2027 -
Bongani Zungu Ajax Cape Town Ativo 135 / 121 40% 10 29.05.2027 -
Khalid Al-Ghannam Al-Ettifaq Ativo 122 / 115 40% 3 29.05.2027 -
Tyreece Campbell Charlton Athletic Ativo 112 / 133 40% 2 29.05.2027 -
Dale Taylor Blackpool Ativo 117 / 109 40% 2 28.05.2027 -
Cian Ashford Cardiff City Ativo 114 / 128 40% 6 27.05.2027 -
Declan Frith Peterborough United Ativo 109 / 99 40% 4 27.05.2027 -
Joel Bagan Cardiff City Ativo 122 / 110 40% 2 27.05.2027 -
Malik Mothersille Stockport County Ativo 118 / 127 40% 3 26.05.2027 -
Calum Agius Crewe Alexandra Ativo 90 / 108 40% 1 26.05.2027 -
Daniel Kyerewaa Reading Ativo 108 / 123 40% 4 25.05.2027 -
Oswin Appollis Orlando Pirates Ativo 116 / 128 40% 4 24.05.2027 -
George Earthy Reading Ativo 109 / 120 40% 1 24.05.2027 -
Mohau Nkota Al-Ettifaq Ativo 127 / 120 40% 4 23.05.2027 -
Caylan Vickers Burton Albion Ativo 116 / 110 40% 2 21.05.2027 -
Alex Lowry Wycombe Wanderers Ativo 113 / 109 40% 1 21.05.2027 -
David Turnbull Cardiff City Ativo 119 / 122 40% 1 18.05.2027 -
Serginho Al Wasl Ativo 126 / 117 40% 7 17.05.2027 -
Marouan Azarkan Al Nasr Ativo 118 / 114 40% 9 15.05.2027 -
Richard Koné Queens Park Rangers Ativo 121 / 123 40% 1 15.05.2027 -
Bradley Zwane SuperSport United Ativo 125 / 114 40% 1 13.05.2027 -
Merwane Khelif MC Alger Ativo 106 / 115 40% 3 12.05.2027 -
Alex Robertson Cardiff City Ativo 125 / 122 40% 4 12.05.2027 -
Paddy Lane Reading Ativo 113 / 112 40% 1 11.05.2027 -
Adis Jašić Zamalek Ativo 125 / 131 40% 3 07.05.2027 -
Milson Al Jazira Ativo 120 / 128 40% 5 04.05.2027 -
Joseph Hungbo Wigan Athletic Ativo 108 / 104 40% 1 04.05.2027 -
Fábio Tavares Burton Albion Ativo 94 / 99 40% 1 03.05.2027 -
Darragh Burns Grimsby Town Ativo 96 / 103 40% 2 02.05.2027 -
Dylan Levitt Leyton Orient Ativo 122 / 110 40% 1 02.05.2027 -
Malcolm Ebiowei Gillingham Ativo 105 / 96 40% 1 01.05.2027 -
Rashid Al-Salem Al-Mojzel Ativo 106 / 91 40% 1 29.04.2027 -
Aboubacar Doumbia Al-Orobah Ativo 106 / 102 40% 4 28.04.2027 -
Turki Al-Ammar Al-Qadisiyah Ativo 119 / 114 40% 2 22.04.2027 -
Rafael Rodrigues Al Ain Ativo 113 / 115 40% 6 21.04.2027 -
Ibrahim Bayesh Al Dhafra Ativo 124 / 125 40% 2 21.04.2027 -
Stephen Amankona Aduana Stars Ativo 98 / 94 40% 3 17.04.2027 -
Nour El Islam Fettouhi JS Saoura Ativo 99 / 96 40% 1 13.04.2027 -
Wandile Duba ASO Chlef Ativo 106 / 112 40% 1 13.04.2027 -
Ahmed Al-Nakhli Al-Hazem Ativo 113 / 111 40% 6 09.04.2027 -
Siaka Sidibé Al Wasl Ativo 117 / 124 40% 3 09.04.2027 -
Saleh Abu Al-Shamat Al-Ahli Ativo 121 / 121 40% 4 08.04.2027 -
Khalid Al Hashmi Al Ahli Ativo 118 / 114 40% 2 05.04.2027 -
Luan Pereira Sharjah Ativo 133 / 120 40% 3 02.04.2027 -
Dion Lopy Al-Ittihad Ativo 135 / 123 40% 12 29.03.2027 -
Ahmed Rashid Al Shaab Ativo 111 / 121 40% 2 29.03.2027 -
Tony Springett Cheltenham Town Ativo 102 / 112 40% 1 14.03.2027 -
Majed Al Shamsi Al Ahli Ativo 108 / 109 40% 1 10.03.2027 -
Abdullah Al Shamsi Al Shabab Ativo 110 / 114 40% 1 07.03.2027 -
Musab Al-Juwayr Al-Qadisiyah Ativo 138 / 138 40% 2 01.03.2027 -
Zakaria Naïdji MC Alger Ativo 107 / 105 40% 2 02.01.2027 -
Renato Tapia Al Wasl Ativo 147 / 132 40% 1 31.12.2026 -
Jordan Lotomba Bloemfontein Celtic Ativo 118 / 123 40% 1 31.12.2026 -
Yacine Adli Al-Shabab Ativo 133 / 146 40% 10 30.12.2026 -
Mohammed Abu Al-Shamat Al-Qadisiyah Ativo 121 / 126 40% 5 30.12.2026 -
Muhannad Al-Shanqiti Al-Ittihad Ativo 111 / 127 40% 2 26.12.2026 -
Moteb Al-Harbi Al-Hilal Ativo 112 / 118 40% 3 24.12.2026 -
Gastón Álvarez Al-Qadisiyah Ativo 139 / 131 40% 4 22.12.2026 -
Leandrinho Sharjah Ativo 114 / 107 40% 2 22.12.2026 -
Faisal Obaid Al Shaab Ativo 108 / 105 40% 3 21.12.2026 -
Zaydou Youssouf Al-Fateh Ativo 125 / 141 40% 6 21.12.2026 -
Moussa N'Diaye Al Nasr Ativo 105 / 117 40% 7 20.12.2026 -
Mohamed Zoungrana MC Alger Ativo 120 / 125 40% 2 17.12.2026 -
Matías Palacios Al Ain Ativo 139 / 122 40% 4 16.12.2026 -
Faisal Al-Ghamdi Al-Ittihad Ativo 114 / 123 40% 6 16.12.2026 -
Riyane Akacem JS Saoura Ativo 97 / 96 40% 1 16.12.2026 -
Imad Reguieg Paradou Ativo 97 / 93 40% 3 15.12.2026 -
Faisal Omar Al Shabab Ativo 129 / 137 40% 2 15.12.2026 -
Mihai Lixandru Al-Fateh Ativo 118 / 105 40% 2 14.12.2026 -
Zineddine Belaïd Al-Taawoun Ativo 126 / 110 40% 3 14.12.2026 -
Fahad Al Menhali Al Shabab Ativo 126 / 109 40% 8 13.12.2026 -
Hugo Al Wasl Ativo 109 / 122 40% 2 12.12.2026 -
Mohamed Ali Ben Romdhane Al Ahly Ativo 132 / 135 40% 4 11.12.2026 -
Gláuber Al Nasr Ativo 124 / 113 40% 2 11.12.2026 -
Bassam Al-Hurayji Al-Taawoun Ativo 99 / 111 40% 3 10.12.2026 -
Ziyad Al-Johani Al-Ahli Ativo 108 / 114 40% 3 10.12.2026 -
Marcus Meloni Al Jazira Ativo 117 / 116 40% 1 08.12.2026 -
Rostand Djooh Al Dhafra Ativo 98 / 112 40% 1 07.12.2026 -
Lebogang Manyama SuperSport United Ativo 115 / 98 40% 3 05.12.2026 -
Radhi Al-Otaibi Al-Ettifaq Ativo 117 / 97 40% 4 03.12.2026 -
Solomon Tweh Al-Ra'ed Ativo 105 / 118 40% 2 02.12.2026 -
Mahmoud Bentayg Zamalek Ativo 120 / 109 40% 1 02.12.2026 -
Erik Al Ahli Ativo 111 / 109 40% 2 21.11.2026 -
Khaled Rabiaa Military Production Ativo 77 / 82 30% 1 / 1m 18.11.2026 -
Ali Majrashi Al-Ahli Ativo 119 / 122 40% 6 06.11.2026 -
Saad Al-Nasser Al-Nassr Ativo 111 / 101 40% 1 05.11.2026 -
Mohamed Réda Hamidi JS Kabylie Ativo 109 / 113 40% 1 21.10.2026 -
Saeed Baattia Al-Fateh Ativo 100 / 109 40% 2 20.10.2026 -
Adam Gnezda Čerin Al Wahda Ativo 132 / 118 40% 1 18.10.2026 -
Lucas Pimenta Al Wahda Ativo 113 / 123 40% 1 13.10.2026 -
Nawaf Bu Washl Al-Nassr Ativo 127 / 118 40% 1 12.10.2026 -
Ousmane Coumbassa MC Oran Ativo 110 / 105 40% 1 06.10.2026 -
Hassan Al-Tambakti Al-Hilal Ativo 134 / 134 40% 1 06.10.2026 -
Abdulaziz Al-Harbi Al-Hazem Ativo 91 / 105 40% 1 01.10.2026 -
David Petrović Al Nasr Ativo 117 / 108 40% 1 27.09.2026 -
Marcel Ratnik Al Ain Ativo 109 / 112 40% 1 17.09.2026 -
Facundo Miño Deportivo Riestra Ativo 126 / 105 40% 1 13.09.2026 -
Yanis Hamache MC Alger Ativo 105 / 109 40% 1 10.09.2026 -
Abdoulaye Touré Al Nasr Ativo 101 / 97 40% 1 17.08.2026 -
Prince Ibara Al-Njoom Ativo 106 / 118 40% 1 17.08.2026 -